Time;durP1;ratioP1;P1;durP2;ratioP2;P2;SDS_P1;SDS_P2;PMS_P1;PMS_P2;Temp;Humidity;BMP_temperature;BMP_pressure;BME280_temperature;BME280_humidity;BME280_pressure;Samples;Min_cycle;Max_cycle;Signal;HPM_P1;HPM_P2
2021/10/11 00:00:52;;;;;;;19.27;15.87;;;3.90;99.90;;;;;;5052006;28;20448;-66
2021/10/11 00:03:19;;;;;;;17.77;15.87;;;3.90;99.90;;;;;;5051821;28;20503;-67
2021/10/11 00:05:46;;;;;;;22.97;16.60;;;3.90;99.90;;;;;;5052068;28;20478;-67
2021/10/11 00:08:13;;;;;;;19.60;14.43;;;4.00;99.90;;;;;;5051751;28;20476;-67
2021/10/11 00:10:41;;;;;;;16.60;14.37;;;4.00;99.90;;;;;;5051675;28;21218;-67
2021/10/11 00:13:08;;;;;;;18.27;15.73;;;3.90;99.90;;;;;;5051577;28;21160;-67
2021/10/11 00:15:35;;;;;;;17.23;14.77;;;3.90;99.90;;;;;;5051496;28;20486;-67
2021/10/11 00:18:01;;;;;;;16.23;14.37;;;3.90;99.90;;;;;;5051832;28;20450;-67
2021/10/11 00:20:28;;;;;;;19.87;15.77;;;3.90;99.90;;;;;;5051460;28;20444;-68
2021/10/11 00:22:55;;;;;;;16.57;14.17;;;3.80;99.90;;;;;;5051232;28;20464;-67
2021/10/11 00:25:22;;;;;;;18.20;15.30;;;3.80;99.90;;;;;;5051414;28;20444;-67
2021/10/11 00:27:50;;;;;;;22.20;15.33;;;3.80;99.90;;;;;;5051179;28;20535;-67
2021/10/11 00:30:17;;;;;;;17.90;15.13;;;3.70;99.90;;;;;;5051571;28;20960;-67
2021/10/11 00:32:46;;;;;;;18.23;15.07;;;3.70;99.90;;;;;;5051707;28;20929;-66
2021/10/11 00:35:14;;;;;;;18.00;15.30;;;3.70;99.90;;;;;;5051620;28;20455;-67
2021/10/11 00:37:40;;;;;;;22.90;15.90;;;3.70;99.90;;;;;;5051071;28;20448;-67
2021/10/11 00:40:09;;;;;;;21.47;15.53;;;3.60;99.90;;;;;;5051448;28;20803;-67
2021/10/11 00:42:36;;;;;;;17.03;14.23;;;3.60;99.90;;;;;;5051061;28;20896;-68
2021/10/11 00:45:05;;;;;;;22.33;16.77;;;3.60;99.90;;;;;;5051317;28;20630;-68
2021/10/11 00:47:34;;;;;;;18.00;14.70;;;3.60;99.90;;;;;;5050633;28;20446;-68
2021/10/11 00:50:01;;;;;;;17.37;14.23;;;3.60;99.90;;;;;;5051293;28;20995;-67
2021/10/11 00:52:28;;;;;;;19.80;15.17;;;3.50;99.90;;;;;;5051106;28;20885;-67
2021/10/11 00:54:55;;;;;;;18.33;16.13;;;3.50;99.90;;;;;;5050850;28;21006;-67
2021/10/11 00:57:22;;;;;;;18.13;16.00;;;3.40;99.90;;;;;;5050388;28;20443;-68
2021/10/11 00:59:49;;;;;;;18.90;14.87;;;3.40;99.90;;;;;;5050958;28;20448;-68
2021/10/11 01:02:17;;;;;;;16.70;14.33;;;3.40;99.90;;;;;;5051186;28;20444;-67
2021/10/11 01:04:44;;;;;;;21.00;15.63;;;3.40;99.90;;;;;;5051149;28;20486;-66
2021/10/11 01:07:11;;;;;;;19.60;15.40;;;3.40;99.90;;;;;;5050979;28;20818;-67
2021/10/11 01:09:38;;;;;;;17.67;14.17;;;3.40;99.90;;;;;;5050767;28;20850;-67
2021/10/11 01:12:05;;;;;;;16.77;14.97;;;3.30;99.90;;;;;;5050657;28;20452;-67
2021/10/11 01:14:32;;;;;;;18.27;15.07;;;3.30;99.90;;;;;;5050888;28;20555;-67
2021/10/11 01:16:59;;;;;;;17.43;13.53;;;3.20;99.90;;;;;;5050515;28;20443;-67
2021/10/11 01:19:27;;;;;;;19.00;15.57;;;3.20;99.90;;;;;;5050677;28;20467;-67
2021/10/11 01:21:55;;;;;;;20.63;15.90;;;3.20;99.90;;;;;;5050745;28;20527;-67
2021/10/11 01:24:22;;;;;;;19.53;15.03;;;3.20;99.90;;;;;;5050544;28;20551;-67
2021/10/11 01:26:49;;;;;;;17.93;15.80;;;3.20;99.90;;;;;;5050432;28;20922;-67
2021/10/11 01:29:18;;;;;;;19.73;15.50;;;3.20;99.90;;;;;;5050443;28;20494;-67
2021/10/11 01:31:45;;;;;;;19.27;16.33;;;3.20;99.90;;;;;;5050658;28;20540;-67
2021/10/11 01:34:12;;;;;;;15.97;14.30;;;3.30;99.90;;;;;;5050358;28;20989;-66
2021/10/11 01:36:39;;;;;;;20.23;15.73;;;3.30;99.90;;;;;;5050306;28;20894;-67
2021/10/11 01:39:10;;;;;;;19.27;15.73;;;3.30;99.90;;;;;;5050547;28;20959;-67
2021/10/11 01:41:37;;;;;;;20.90;17.10;;;3.20;99.90;;;;;;5050478;28;20510;-66
2021/10/11 01:44:04;;;;;;;18.97;16.50;;;3.20;99.90;;;;;;5050425;28;20496;-67
2021/10/11 01:46:31;;;;;;;23.43;16.07;;;3.30;99.90;;;;;;5050079;28;20539;-66
2021/10/11 01:48:58;;;;;;;20.70;16.63;;;3.30;99.90;;;;;;5050258;28;20486;-67
2021/10/11 01:51:25;;;;;;;20.63;16.70;;;3.30;99.90;;;;;;5050063;28;20452;-66
2021/10/11 01:53:52;;;;;;;19.20;15.80;;;3.30;99.90;;;;;;5050479;28;20555;-67
2021/10/11 01:56:20;;;;;;;21.30;17.07;;;3.30;99.90;;;;;;5050011;28;20450;-66
2021/10/11 01:58:47;;;;;;;24.13;18.40;;;3.20;99.90;;;;;;5050575;28;20443;-67
2021/10/11 02:01:13;;;;;;;21.20;18.57;;;3.30;99.90;;;;;;5050221;28;20543;-67
2021/10/11 02:03:40;;;;;;;25.27;17.73;;;3.30;99.90;;;;;;5050097;28;20467;-66
2021/10/11 02:06:08;;;;;;;24.10;17.63;;;3.20;99.90;;;;;;5052301;28;20440;-67
2021/10/11 02:08:34;;;;;;;21.87;17.80;;;3.20;99.90;;;;;;5054275;28;20537;-66
2021/10/11 02:11:01;;;;;;;24.70;17.80;;;3.20;99.90;;;;;;5054228;28;20447;-67
2021/10/11 02:13:29;;;;;;;23.10;16.23;;;3.20;99.90;;;;;;5054347;28;20834;-67
2021/10/11 02:15:56;;;;;;;20.63;17.00;;;3.20;99.90;;;;;;5054177;28;20454;-66
2021/10/11 02:18:23;;;;;;;21.50;17.17;;;3.20;99.90;;;;;;5053627;28;20444;-66
2021/10/11 02:20:50;;;;;;;19.50;16.33;;;3.20;99.90;;;;;;5053643;28;20450;-66
2021/10/11 02:23:17;;;;;;;21.43;16.00;;;3.30;99.90;;;;;;5054147;28;20470;-67
2021/10/11 02:25:43;;;;;;;20.40;16.80;;;3.20;99.90;;;;;;5053865;28;20455;-68
2021/10/11 02:28:10;;;;;;;20.83;16.87;;;3.10;99.90;;;;;;5053301;28;20443;-68
2021/10/11 02:30:38;;;;;;;24.80;17.50;;;3.10;99.90;;;;;;5053692;28;20531;-68
2021/10/11 02:33:05;;;;;;;19.73;16.67;;;3.10;99.90;;;;;;5053359;28;20559;-67
2021/10/11 02:35:32;;;;;;;18.90;16.30;;;3.10;99.90;;;;;;5054182;28;20439;-67
2021/10/11 02:37:59;;;;;;;19.07;15.90;;;3.10;99.90;;;;;;5053544;28;20941;-68
2021/10/11 02:40:26;;;;;;;19.57;16.10;;;3.00;99.90;;;;;;5053917;28;20462;-68
2021/10/11 02:42:53;;;;;;;20.13;16.20;;;3.10;99.90;;;;;;5053959;28;20890;-67
2021/10/11 02:45:19;;;;;;;21.77;17.23;;;3.00;99.90;;;;;;5053744;28;20538;-68
2021/10/11 02:47:48;;;;;;;22.60;16.03;;;3.10;99.90;;;;;;5053330;28;20450;-67
2021/10/11 02:50:15;;;;;;;20.93;16.90;;;3.00;99.90;;;;;;5053432;28;20586;-67
2021/10/11 02:52:42;;;;;;;22.70;17.30;;;3.00;99.90;;;;;;5053427;28;20486;-67
2021/10/11 02:55:09;;;;;;;21.87;18.43;;;3.00;99.90;;;;;;5053337;28;20455;-68
2021/10/11 02:57:36;;;;;;;23.43;18.33;;;3.10;99.90;;;;;;5053066;28;20444;-67
2021/10/11 03:00:03;;;;;;;21.50;16.73;;;3.00;99.90;;;;;;5053329;28;20444;-67
2021/10/11 03:02:30;;;;;;;21.53;15.77;;;3.00;99.90;;;;;;5053088;28;20446;-67
2021/10/11 03:04:58;;;;;;;17.40;15.50;;;3.00;99.90;;;;;;5053033;28;20941;-67
2021/10/11 03:07:25;;;;;;;18.73;15.20;;;2.90;99.90;;;;;;5052782;28;20806;-67
2021/10/11 03:09:52;;;;;;;20.50;16.10;;;2.90;99.90;;;;;;5052879;28;20480;-67
2021/10/11 03:12:19;;;;;;;17.20;15.17;;;2.90;99.90;;;;;;5052983;28;20534;-66
2021/10/11 03:14:46;;;;;;;19.70;15.40;;;2.90;99.90;;;;;;5052637;28;20470;-67
2021/10/11 03:17:13;;;;;;;20.07;16.80;;;2.90;99.90;;;;;;5052684;28;20444;-67
2021/10/11 03:19:40;;;;;;;21.83;16.70;;;3.00;99.90;;;;;;5052725;28;20454;-67
2021/10/11 03:22:08;;;;;;;21.23;16.03;;;3.00;99.90;;;;;;5053034;28;20458;-67
2021/10/11 03:24:35;;;;;;;21.80;15.80;;;3.00;99.90;;;;;;5052655;28;20471;-65
2021/10/11 03:27:02;;;;;;;20.23;16.40;;;2.90;99.90;;;;;;5052463;28;20636;-66
2021/10/11 03:29:29;;;;;;;32.17;19.47;;;2.90;99.90;;;;;;5053013;28;20483;-66
2021/10/11 03:31:56;;;;;;;26.20;17.97;;;2.90;99.90;;;;;;5052859;28;20535;-66
2021/10/11 03:34:23;;;;;;;19.43;15.60;;;2.80;99.90;;;;;;5052459;28;20903;-66
2021/10/11 03:36:49;;;;;;;20.97;16.97;;;2.90;99.90;;;;;;5051995;28;20934;-67
2021/10/11 03:39:18;;;;;;;18.27;16.07;;;2.90;99.90;;;;;;5052415;28;20822;-66
2021/10/11 03:41:44;;;;;;;21.10;15.73;;;2.90;99.90;;;;;;5052142;28;20535;-66
2021/10/11 03:44:11;;;;;;;19.80;16.07;;;2.90;99.90;;;;;;5052144;28;20467;-66
2021/10/11 03:46:38;;;;;;;21.90;17.27;;;2.80;99.90;;;;;;5051915;28;20448;-67
2021/10/11 03:49:06;;;;;;;20.33;15.70;;;2.80;99.90;;;;;;5052407;28;20490;-67
2021/10/11 03:51:33;;;;;;;26.00;17.33;;;2.80;99.90;;;;;;5052294;28;20448;-67
2021/10/11 03:54:00;;;;;;;18.17;15.10;;;2.80;99.90;;;;;;5052585;28;20472;-67
2021/10/11 03:56:28;;;;;;;20.97;16.13;;;2.70;99.90;;;;;;5052042;28;20990;-69
2021/10/11 03:58:55;;;;;;;23.43;16.07;;;2.70;99.90;;;;;;5053026;28;20452;-66
2021/10/11 04:01:22;;;;;;;21.70;17.60;;;2.70;99.90;;;;;;5052762;28;20451;-70
2021/10/11 04:03:50;;;;;;;19.30;15.17;;;2.60;99.90;;;;;;5053407;28;20499;-68
2021/10/11 04:06:17;;;;;;;21.10;16.50;;;2.60;99.90;;;;;;5052201;28;20452;-66
2021/10/11 04:08:46;;;;;;;25.20;18.17;;;2.60;99.90;;;;;;5051925;28;20855;-67
2021/10/11 04:11:22;;;;;;;25.67;19.47;;;2.70;99.90;;;;;;5052064;28;20543;-66
2021/10/11 04:13:50;;;;;;;26.43;21.07;;;2.80;99.90;;;;;;5052301;28;20478;-67
2021/10/11 04:16:17;;;;;;;24.67;18.63;;;2.80;99.90;;;;;;5052143;28;20470;-67
2021/10/11 04:18:44;;;;;;;23.37;17.53;;;2.80;99.90;;;;;;5051994;28;20448;-66
2021/10/11 04:21:11;;;;;;;23.43;18.40;;;2.80;99.90;;;;;;5051906;28;20535;-66
2021/10/11 04:23:38;;;;;;;22.30;17.77;;;2.80;99.90;;;;;;5051086;28;20464;-66
2021/10/11 04:26:05;;;;;;;21.87;18.23;;;2.80;99.90;;;;;;5051718;28;20507;-66
2021/10/11 04:28:32;;;;;;;24.47;19.27;;;2.70;99.90;;;;;;5051013;28;20466;-66
2021/10/11 04:31:00;;;;;;;23.23;19.03;;;2.70;99.90;;;;;;5051527;28;20494;-66
2021/10/11 04:33:27;;;;;;;29.37;19.17;;;2.70;99.90;;;;;;5051307;28;20480;-66
2021/10/11 04:35:54;;;;;;;26.10;17.90;;;2.70;99.90;;;;;;5051654;28;21183;-66
2021/10/11 04:38:21;;;;;;;23.70;18.40;;;2.70;99.90;;;;;;5050635;28;20479;-68
2021/10/11 04:40:48;;;;;;;25.10;18.90;;;2.70;99.90;;;;;;5051401;28;20464;-65
2021/10/11 04:43:15;;;;;;;23.87;17.90;;;2.80;99.90;;;;;;5051151;28;20534;-66
2021/10/11 04:45:42;;;;;;;20.10;16.53;;;2.80;99.90;;;;;;5051325;28;20917;-66
2021/10/11 04:48:12;;;;;;;23.80;19.00;;;2.70;99.90;;;;;;5050654;28;20447;-66
2021/10/11 04:50:40;;;;;;;22.57;17.63;;;2.80;99.90;;;;;;5050862;28;20480;-65
2021/10/11 04:53:09;;;;;;;23.47;17.90;;;2.80;99.90;;;;;;5051176;28;21053;-65
2021/10/11 04:55:35;;;;;;;24.80;18.13;;;2.80;99.90;;;;;;5051003;28;20448;-65
2021/10/11 04:58:03;;;;;;;25.50;17.63;;;2.80;99.90;;;;;;5050972;28;20517;-65
2021/10/11 05:00:30;;;;;;;30.60;18.50;;;2.80;99.90;;;;;;5046920;28;20448;-66
2021/10/11 05:02:57;;;;;;;22.50;18.10;;;2.90;99.90;;;;;;5011454;28;20580;-66
2021/10/11 05:05:25;;;;;;;27.17;19.43;;;2.80;99.90;;;;;;5011180;28;20812;-67
2021/10/11 05:07:52;;;;;;;20.47;16.83;;;2.90;99.90;;;;;;5016418;28;20459;-66
2021/10/11 05:10:19;;;;;;;21.40;18.60;;;2.70;99.90;;;;;;5029494;28;20580;-66
2021/10/11 05:12:46;;;;;;;24.70;18.23;;;2.70;99.90;;;;;;5015111;28;20485;-67
2021/10/11 05:15:13;;;;;;;20.60;16.97;;;2.70;99.90;;;;;;5018526;28;20455;-65
2021/10/11 05:17:40;;;;;;;24.70;17.47;;;2.70;99.90;;;;;;5038634;28;20444;-65
2021/10/11 05:20:08;;;;;;;22.30;18.10;;;2.70;99.90;;;;;;5017828;28;20496;-64
2021/10/11 05:22:36;;;;;;;22.63;17.90;;;2.70;99.90;;;;;;5023950;28;20448;-66
2021/10/11 05:25:03;;;;;;;26.03;19.50;;;2.80;99.90;;;;;;5023943;28;20532;-66
2021/10/11 05:27:31;;;;;;;21.47;17.67;;;2.90;99.90;;;;;;5021642;28;20942;-66
2021/10/11 05:29:58;;;;;;;21.50;19.07;;;2.90;99.90;;;;;;5012414;28;20478;-66
2021/10/11 05:32:25;;;;;;;20.33;17.90;;;3.00;99.90;;;;;;5025327;28;20450;-66
2021/10/11 05:34:54;;;;;;;20.17;16.10;;;3.00;99.90;;;;;;5016776;28;20540;-66
2021/10/11 05:37:21;;;;;;;26.20;17.90;;;3.00;99.90;;;;;;5017745;28;21023;-65
2021/10/11 05:39:49;;;;;;;23.87;17.63;;;3.00;99.90;;;;;;5023350;28;20445;-66
2021/10/11 05:42:16;;;;;;;21.37;16.30;;;2.90;99.90;;;;;;5021896;28;20837;-67
2021/10/11 05:44:43;;;;;;;23.77;18.70;;;2.90;99.90;;;;;;5019915;28;20465;-66
2021/10/11 05:47:10;;;;;;;27.83;19.67;;;3.00;99.90;;;;;;5024813;28;20451;-66
2021/10/11 05:49:38;;;;;;;27.17;20.37;;;3.10;99.90;;;;;;5026674;28;20568;-66
2021/10/11 05:52:06;;;;;;;28.00;22.97;;;3.10;99.90;;;;;;5027787;28;20445;-67
2021/10/11 05:54:32;;;;;;;30.20;21.27;;;3.20;99.90;;;;;;5028948;28;21069;-67
2021/10/11 05:57:01;;;;;;;28.03;22.17;;;3.30;99.90;;;;;;5028648;28;20457;-67
2021/10/11 05:59:27;;;;;;;26.30;21.50;;;3.40;99.90;;;;;;5028437;28;20882;-67
2021/10/11 06:01:54;;;;;;;25.90;21.57;;;3.50;99.90;;;;;;5028051;28;20942;-67
2021/10/11 06:04:21;;;;;;;29.40;22.30;;;3.40;99.90;;;;;;5028931;28;20476;-67
2021/10/11 06:06:48;;;;;;;29.53;22.67;;;3.40;99.90;;;;;;5028254;28;20476;-67
2021/10/11 06:09:15;;;;;;;33.37;22.00;;;3.40;99.90;;;;;;5028989;28;20528;-67
2021/10/11 06:11:42;;;;;;;28.83;21.07;;;3.40;99.90;;;;;;5028503;28;20997;-67
2021/10/11 06:14:11;;;;;;;25.80;21.53;;;3.40;99.90;;;;;;5028752;28;20584;-67
2021/10/11 06:16:38;;;;;;;24.60;19.00;;;3.50;99.90;;;;;;5028592;28;20440;-67
2021/10/11 06:19:05;;;;;;;27.17;19.80;;;3.50;99.90;;;;;;5028768;28;20461;-67
2021/10/11 06:21:34;;;;;;;27.10;20.70;;;3.50;99.90;;;;;;5028740;28;20970;-68
2021/10/11 06:24:01;;;;;;;31.70;23.30;;;3.50;99.90;;;;;;5028939;28;20495;-67
2021/10/11 06:26:28;;;;;;;24.97;20.80;;;3.60;99.90;;;;;;5028442;28;20464;-67
2021/10/11 06:28:55;;;;;;;28.17;21.77;;;3.60;99.90;;;;;;5028575;28;20440;-66
2021/10/11 06:31:23;;;;;;;24.10;19.00;;;3.60;99.90;;;;;;5028581;28;20488;-67
2021/10/11 06:33:50;;;;;;;26.90;20.10;;;3.60;99.90;;;;;;5028137;28;20507;-67
2021/10/11 06:36:17;;;;;;;25.90;19.60;;;3.60;99.90;;;;;;5028340;28;21014;-67
2021/10/11 06:38:44;;;;;;;29.20;20.70;;;3.70;99.90;;;;;;5028525;28;20943;-67
2021/10/11 06:41:10;;;;;;;24.10;19.07;;;3.80;99.90;;;;;;5028593;28;20451;-67
2021/10/11 06:43:37;;;;;;;22.80;19.97;;;3.80;99.90;;;;;;5028931;28;20472;-68
2021/10/11 06:46:04;;;;;;;25.80;19.97;;;3.80;99.90;;;;;;5029200;28;20456;-67
2021/10/11 06:48:33;;;;;;;24.23;20.07;;;4.00;99.90;;;;;;5028361;28;20449;-68
2021/10/11 06:50:59;;;;;;;30.00;19.40;;;4.10;99.90;;;;;;5029254;28;20487;-65
2021/10/11 06:53:26;;;;;;;23.37;19.80;;;4.20;99.90;;;;;;5032158;28;20469;-66
2021/10/11 06:55:53;;;;;;;24.43;19.70;;;4.30;99.90;;;;;;5032962;28;20448;-66
2021/10/11 06:58:20;;;;;;;29.53;19.50;;;4.30;99.90;;;;;;5033371;28;20470;-66
2021/10/11 07:00:47;;;;;;;25.17;20.40;;;4.30;99.90;;;;;;5033322;28;20515;-66
2021/10/11 07:03:15;;;;;;;23.47;19.73;;;4.40;99.90;;;;;;5032756;28;20468;-66
2021/10/11 07:05:43;;;;;;;26.07;20.77;;;4.50;99.90;;;;;;5033200;28;20511;-66
2021/10/11 07:08:10;;;;;;;26.73;21.63;;;4.60;99.90;;;;;;5032316;28;20476;-66
2021/10/11 07:10:37;;;;;;;24.90;20.97;;;4.70;99.90;;;;;;5032444;28;20480;-67
2021/10/11 07:13:04;;;;;;;30.33;23.67;;;4.80;99.90;;;;;;5032593;28;20461;-67
2021/10/11 07:15:33;;;;;;;29.23;21.47;;;4.90;99.90;;;;;;5032545;28;20448;-68
2021/10/11 07:18:00;;;;;;;29.37;22.47;;;5.20;99.90;;;;;;5032420;28;20544;-66
2021/10/11 07:20:28;;;;;;;29.03;22.70;;;5.40;99.90;;;;;;5032772;28;20468;-67
2021/10/11 07:22:56;;;;;;;28.10;24.50;;;5.60;99.90;;;;;;5032578;28;21058;-66
2021/10/11 07:25:23;;;;;;;25.50;22.60;;;5.80;99.90;;;;;;5032422;28;20444;-66
2021/10/11 07:27:51;;;;;;;24.67;20.20;;;5.90;99.90;;;;;;5031951;28;20467;-66
2021/10/11 07:30:18;;;;;;;27.90;22.43;;;6.00;99.90;;;;;;5032131;28;20476;-66
2021/10/11 07:32:46;;;;;;;24.27;21.57;;;6.10;99.90;;;;;;5032121;28;20855;-67
2021/10/11 07:35:13;;;;;;;26.53;22.03;;;6.30;99.90;;;;;;5032428;28;20898;-67
2021/10/11 07:37:40;;;;;;;24.80;22.00;;;6.30;99.90;;;;;;5031861;28;20451;-67
2021/10/11 07:40:10;;;;;;;27.73;23.07;;;6.40;99.90;;;;;;5032293;28;20472;-67
2021/10/11 07:42:37;;;;;;;26.57;21.87;;;6.40;99.90;;;;;;5031999;28;20480;-67
2021/10/11 07:45:05;;;;;;;24.90;21.57;;;6.50;99.90;;;;;;5032328;28;20470;-67
2021/10/11 07:47:38;;;;;;;26.80;21.17;;;6.60;99.90;;;;;;5031890;28;20526;-67
2021/10/11 07:50:07;;;;;;;28.83;21.67;;;6.80;99.90;;;;;;5032045;28;20547;-67
2021/10/11 07:52:34;;;;;;;25.77;21.00;;;6.90;99.90;;;;;;5032053;28;20879;-67
2021/10/11 07:55:01;;;;;;;23.97;21.23;;;7.20;99.90;;;;;;5031968;28;20447;-67
2021/10/11 07:57:33;;;;;;;25.30;20.57;;;7.40;99.90;;;;;;5031902;28;20457;-67
2021/10/11 08:00:00;;;;;;;23.60;20.93;;;7.60;99.90;;;;;;5032159;28;20452;-67
2021/10/11 08:02:26;;;;;;;25.00;20.90;;;7.80;99.90;;;;;;5031506;28;20535;-67
2021/10/11 08:04:53;;;;;;;26.40;21.43;;;8.10;99.90;;;;;;5031372;28;20468;-67
2021/10/11 08:07:20;;;;;;;22.97;20.23;;;8.30;99.90;;;;;;5031464;28;20456;-67
2021/10/11 08:09:47;;;;;;;24.60;21.60;;;8.50;99.90;;;;;;5031704;28;20484;-67
2021/10/11 08:12:14;;;;;;;27.07;19.80;;;8.50;99.90;;;;;;5031587;28;20484;-67
2021/10/11 08:14:42;;;;;;;24.40;20.50;;;8.60;99.90;;;;;;5031910;28;20539;-67
2021/10/11 08:17:09;;;;;;;25.43;20.77;;;8.60;99.90;;;;;;5031703;28;20452;-66
2021/10/11 08:19:35;;;;;;;26.47;21.87;;;8.70;99.90;;;;;;5031874;28;20448;-67
2021/10/11 08:22:02;;;;;;;21.97;19.27;;;8.80;99.90;;;;;;5031644;28;20528;-67
2021/10/11 08:24:29;;;;;;;22.00;19.60;;;8.80;99.90;;;;;;5031381;28;20479;-66
2021/10/11 08:26:56;;;;;;;23.20;18.87;;;8.90;99.90;;;;;;5031370;28;20544;-66
2021/10/11 08:29:25;;;;;;;22.00;19.70;;;9.10;99.90;;;;;;5031530;28;20451;-66
2021/10/11 08:31:53;;;;;;;27.37;21.20;;;9.30;99.90;;;;;;5031320;28;20489;-67
2021/10/11 08:34:20;;;;;;;21.33;19.00;;;9.40;99.90;;;;;;5031152;28;20982;-67
2021/10/11 08:36:47;;;;;;;24.53;19.13;;;9.50;99.90;;;;;;5030831;28;20449;-67
2021/10/11 08:39:14;;;;;;;21.47;19.17;;;9.70;99.90;;;;;;5031380;28;20448;-67
2021/10/11 08:41:41;;;;;;;20.40;18.30;;;9.80;99.90;;;;;;5031298;28;20531;-67
2021/10/11 08:44:10;;;;;;;21.50;19.20;;;9.90;99.90;;;;;;5031268;28;20488;-68
2021/10/11 08:46:37;;;;;;;20.33;18.13;;;10.00;99.90;;;;;;5030701;28;20449;-67
2021/10/11 08:49:07;;;;;;;20.40;18.20;;;10.20;99.90;;;;;;5030988;28;20519;-65
2021/10/11 08:51:34;;;;;;;21.40;19.20;;;10.40;99.90;;;;;;5030637;28;20531;-68
2021/10/11 08:54:01;;;;;;;24.53;18.23;;;10.50;99.90;;;;;;5031065;28;20564;-66
2021/10/11 08:56:28;;;;;;;18.73;16.73;;;10.80;99.90;;;;;;5030569;28;20540;-68
2021/10/11 08:58:54;;;;;;;18.37;16.27;;;11.00;99.90;;;;;;5030787;28;20946;-67
2021/10/11 09:01:23;;;;;;;18.30;16.07;;;11.20;99.90;;;;;;5030735;28;20445;-67
2021/10/11 09:03:50;;;;;;;17.67;15.83;;;11.20;99.90;;;;;;5030512;28;21010;-67
2021/10/11 09:06:18;;;;;;;18.27;16.47;;;11.50;99.90;;;;;;5030452;28;20459;-67
2021/10/11 09:08:45;;;;;;;19.30;15.20;;;11.90;99.90;;;;;;5030726;28;20540;-67
2021/10/11 09:11:14;;;;;;;16.83;15.07;;;12.00;99.90;;;;;;5030494;28;20485;-67
2021/10/11 09:13:44;;;;;;;17.13;15.33;;;12.10;99.90;;;;;;5030328;28;20845;-67
2021/10/11 09:16:14;;;;;;;21.00;16.90;;;12.20;99.90;;;;;;5030402;28;20498;-68
2021/10/11 09:18:43;;;;;;;18.80;16.80;;;12.40;99.90;;;;;;5030680;28;20536;-66
2021/10/11 09:21:10;;;;;;;16.80;15.00;;;12.60;99.90;;;;;;5030632;28;20484;-67
2021/10/11 09:23:38;;;;;;;19.70;15.40;;;12.70;99.90;;;;;;5030398;28;20765;-66
2021/10/11 09:26:16;;;;;;;23.50;15.60;;;13.10;99.90;;;;;;5030237;28;20452;-66
2021/10/11 09:28:53;;;;;;;19.97;15.30;;;13.30;99.90;;;;;;5030280;28;20502;-68
2021/10/11 09:31:23;;;;;;;18.47;16.43;;;13.30;99.90;;;;;;5030419;28;20476;-67
2021/10/11 09:34:00;;;;;;;17.73;15.53;;;13.70;99.90;;;;;;5030073;28;20919;-67
2021/10/11 09:36:27;;;;;;;20.10;16.90;;;13.80;99.90;;;;;;5029970;28;20455;-67
2021/10/11 09:38:59;;;;;;;17.23;15.40;;;13.80;99.90;;;;;;5030005;28;20446;-68
2021/10/11 09:41:27;;;;;;;19.83;17.67;;;14.00;99.90;;;;;;5030017;28;21018;-67
2021/10/11 09:43:54;;;;;;;19.23;17.20;;;14.30;99.90;;;;;;5030015;28;20468;-67
2021/10/11 09:46:23;;;;;;;24.53;18.10;;;14.40;99.90;;;;;;5029762;28;20444;-67
2021/10/11 09:48:51;;;;;;;17.80;15.90;;;14.40;99.90;;;;;;5029993;28;20879;-67
2021/10/11 09:51:21;;;;;;;19.37;16.13;;;14.00;99.90;;;;;;5029901;28;20487;-67
2021/10/11 09:53:48;;;;;;;18.53;16.53;;;14.10;99.90;;;;;;5029791;28;20998;-66
2021/10/11 09:56:17;;;;;;;18.97;15.97;;;14.30;99.90;;;;;;5029885;28;20441;-68
2021/10/11 09:58:44;;;;;;;18.00;16.10;;;14.10;99.90;;;;;;5029988;28;20448;-66
2021/10/11 10:01:11;;;;;;;19.60;15.67;;;14.20;99.90;;;;;;5029941;28;20441;-66
2021/10/11 10:03:38;;;;;;;17.90;16.00;;;14.40;99.90;;;;;;5029735;28;20464;-66
2021/10/11 10:06:08;;;;;;;22.17;16.40;;;15.10;99.90;;;;;;5029862;28;20445;-66
2021/10/11 10:08:37;;;;;;;19.93;16.40;;;15.40;99.90;;;;;;5029488;28;20487;-67
2021/10/11 10:11:05;;;;;;;21.33;16.97;;;15.10;99.90;;;;;;5029842;28;20488;-67
2021/10/11 10:13:46;;;;;;;18.03;15.80;;;15.40;99.90;;;;;;5029600;28;20469;-67
2021/10/11 10:16:14;;;;;;;17.90;16.00;;;15.80;99.90;;;;;;5029922;28;20448;-67
2021/10/11 10:18:43;;;;;;;19.53;17.10;;;15.90;99.90;;;;;;5029972;28;20447;-67
2021/10/11 10:21:10;;;;;;;19.30;17.27;;;15.80;99.90;;;;;;5029614;28;20487;-67
2021/10/11 10:23:39;;;;;;;18.13;16.27;;;15.80;99.90;;;;;;5030666;28;20472;-67
2021/10/11 10:26:07;;;;;;;22.30;16.77;;;15.70;99.90;;;;;;5031605;28;20481;-67
2021/10/11 10:28:46;;;;;;;18.90;16.77;;;15.90;99.90;;;;;;5034978;28;20455;-67
2021/10/11 10:31:26;;;;;;;18.67;16.57;;;16.00;99.90;;;;;;5034630;28;20853;-67
2021/10/11 10:33:53;;;;;;;19.00;17.00;;;16.70;99.90;;;;;;5034747;28;20472;-67
2021/10/11 10:36:22;;;;;;;16.73;14.90;;;17.10;99.90;;;;;;5034400;28;20451;-67
2021/10/11 10:39:00;;;;;;;18.30;16.40;;;17.30;99.90;;;;;;5034761;28;20536;-67
2021/10/11 10:41:27;;;;;;;19.03;16.30;;;17.50;99.90;;;;;;5033957;28;20475;-67
2021/10/11 10:43:56;;;;;;;20.60;16.13;;;17.00;99.90;;;;;;5033596;28;20492;-67
2021/10/11 10:46:23;;;;;;;22.00;17.63;;;17.00;99.90;;;;;;5033915;28;20451;-66
2021/10/11 10:48:51;;;;;;;16.40;14.70;;;17.20;99.90;;;;;;5033519;28;20451;-67
2021/10/11 10:51:19;;;;;;;17.57;15.73;;;18.00;99.90;;;;;;5033381;28;20492;-67
2021/10/11 10:53:51;;;;;;;17.57;15.67;;;18.80;99.10;;;;;;5033366;28;20468;-66
2021/10/11 10:56:18;;;;;;;17.03;15.20;;;18.50;98.70;;;;;;5032837;28;20532;-66
2021/10/11 10:58:46;;;;;;;19.07;17.07;;;18.40;99.20;;;;;;5033387;28;20440;-66
2021/10/11 11:01:14;;;;;;;18.70;16.80;;;18.50;98.30;;;;;;5033253;28;20453;-66
2021/10/11 11:03:41;;;;;;;19.93;16.30;;;18.30;98.00;;;;;;5033059;28;21200;-67
2021/10/11 11:06:08;;;;;;;18.67;16.07;;;18.50;97.80;;;;;;5032770;28;20968;-67
2021/10/11 11:08:35;;;;;;;23.93;16.73;;;18.60;98.00;;;;;;5032718;28;20441;-67
2021/10/11 11:11:03;;;;;;;19.07;17.27;;;18.80;97.80;;;;;;5032734;28;20457;-67
2021/10/11 11:13:30;;;;;;;20.23;18.03;;;18.90;97.30;;;;;;5033124;28;20468;-67
2021/10/11 11:15:57;;;;;;;18.67;16.77;;;18.70;96.70;;;;;;5032889;28;20456;-68
2021/10/11 11:18:27;;;;;;;20.77;17.00;;;18.80;97.20;;;;;;5032655;28;20452;-67
2021/10/11 11:20:56;;;;;;;23.00;19.20;;;18.80;97.20;;;;;;5033220;28;20826;-67
2021/10/11 11:23:24;;;;;;;22.20;17.47;;;18.50;97.30;;;;;;5032740;28;20499;-67
2021/10/11 11:25:53;;;;;;;18.33;16.00;;;18.30;97.30;;;;;;5033113;28;20441;-67
2021/10/11 11:28:23;;;;;;;20.23;18.00;;;17.70;97.60;;;;;;5032592;28;20447;-67
2021/10/11 11:30:51;;;;;;;17.27;15.47;;;17.20;98.20;;;;;;5032647;28;20808;-67
2021/10/11 11:33:22;;;;;;;19.20;16.40;;;16.90;99.00;;;;;;5031992;28;20499;-67
2021/10/11 11:35:52;;;;;;;18.03;16.20;;;17.30;98.60;;;;;;5032407;28;20437;-67
2021/10/11 11:38:21;;;;;;;17.53;14.67;;;17.80;98.70;;;;;;5030841;28;20429;-67
2021/10/11 11:40:51;;;;;;;17.87;16.07;;;17.90;97.70;;;;;;5032480;28;20853;-67
2021/10/11 11:43:19;;;;;;;18.87;16.67;;;18.40;97.30;;;;;;5032158;28;20828;-67
2021/10/11 11:45:48;;;;;;;19.63;15.93;;;18.60;96.90;;;;;;5032315;28;20451;-67
2021/10/11 11:48:17;;;;;;;19.07;15.33;;;18.40;96.20;;;;;;5029352;28;20456;-67
2021/10/11 11:50:46;;;;;;;15.67;14.17;;;18.30;96.00;;;;;;5028774;28;20452;-67
2021/10/11 11:53:16;;;;;;;18.20;15.60;;;18.00;95.00;;;;;;5026630;28;20556;-66
2021/10/11 11:55:47;;;;;;;19.93;14.70;;;18.00;96.60;;;;;;5032536;28;20531;-66
2021/10/11 11:58:21;;;;;;;18.23;14.93;;;18.20;95.50;;;;;;5031780;28;20906;-67
2021/10/11 12:00:51;;;;;;;17.23;14.93;;;18.60;95.40;;;;;;5032005;28;20448;-66
2021/10/11 12:03:19;;;;;;;18.90;15.57;;;18.90;95.20;;;;;;5031681;28;20999;-67
2021/10/11 12:05:50;;;;;;;21.33;16.10;;;19.20;94.30;;;;;;5026808;28;20437;-66
2021/10/11 12:08:19;;;;;;;16.87;14.80;;;19.50;94.20;;;;;;5021022;28;20904;-67
2021/10/11 12:10:56;;;;;;;16.80;14.53;;;19.80;93.50;;;;;;5014015;28;20442;-67
2021/10/11 12:13:23;;;;;;;19.50;15.87;;;19.90;92.90;;;;;;5013805;28;21085;-67
2021/10/11 12:15:59;;;;;;;16.87;14.87;;;20.10;93.30;;;;;;5028470;28;20528;-68
2021/10/11 12:18:35;;;;;;;18.37;14.63;;;20.30;92.40;;;;;;5011556;28;20519;-68
2021/10/11 12:21:02;;;;;;;15.83;14.13;;;19.80;92.10;;;;;;5011675;28;20520;-68
2021/10/11 12:23:37;;;;;;;16.80;15.10;;;20.00;92.30;;;;;;5011504;28;21074;-67
2021/10/11 12:26:05;;;;;;;15.23;13.63;;;19.90;92.60;;;;;;5011377;28;20548;-67
2021/10/11 12:28:32;;;;;;;18.27;16.27;;;20.30;92.50;;;;;;5011275;28;20450;-67
2021/10/11 12:31:01;;;;;;;17.43;15.50;;;20.10;91.60;;;;;;5011711;28;20446;-67
2021/10/11 12:33:36;;;;;;;18.07;15.30;;;20.00;91.60;;;;;;5020603;28;20509;-68
2021/10/11 12:36:03;;;;;;;15.63;13.97;;;20.00;92.70;;;;;;5015870;28;20433;-67